Flight Track Log - Related Links

Times and Time Zones

All times are in EDT time to prevent confusion due to time zone crossing. See the CSN3540 flight status page for this flight to view local times or setup timezone preferences in your user account.


Time Position Orientation Groundspeed Altitude Reporting Facility
EDT Latitude Longitude Course Direction KTS MPH feet Rate Location/Type
Mon 10:36:00 PM 28.7514 115.8431 204° Southwest  Level Estimated
Mon 10:37:00 PM 28.6377 115.7864 204° Southwest  Level Estimated
Mon 10:38:00 PM 28.5240 115.7297 204° Southwest  Level Estimated
Mon 10:39:00 PM 28.4103 115.6732 204° Southwest  Level Estimated
Mon 10:40:00 PM 28.2965 115.6168 204° Southwest  Level Estimated
Mon 10:41:00 PM 28.1828 115.5605 204° Southwest  Level Estimated
Mon 10:42:00 PM 28.0690 115.5044 204° Southwest  Level Estimated
Mon 10:43:00 PM 27.9552 115.4484 204° Southwest  Level Estimated
Mon 10:44:00 PM 27.8413 115.3924 203° Southwest  Level Estimated
Mon 10:45:00 PM 27.7275 115.3366 203° Southwest  Level Estimated
Mon 10:46:00 PM 27.6136 115.2810 203° Southwest  Level Estimated
Mon 10:47:00 PM 27.4997 115.2254 203° Southwest  Level Estimated
Mon 10:48:00 PM 27.3858 115.1700 203° Southwest  Level Estimated
Mon 10:49:00 PM 27.2719 115.1146 203° Southwest  Level Estimated
Mon 10:50:00 PM 27.1579 115.0594 203° Southwest  Level Estimated
Mon 10:51:00 PM 27.0439 115.0043 203° Southwest  Level Estimated
Mon 10:52:00 PM 26.9299 114.9493 203° Southwest  Level Estimated
Mon 10:53:00 PM 26.8159 114.8944 203° Southwest  Level Estimated
Mon 10:54:00 PM 26.7018 114.8396 203° Southwest  Level Estimated
Mon 10:55:00 PM 26.5877 114.7849 203° Southwest  Level Estimated
Mon 10:56:00 PM 26.4736 114.7304 203° Southwest  Level Estimated
Mon 10:57:00 PM 26.3595 114.6759 203° Southwest  Level Estimated
Mon 10:58:00 PM 26.2454 114.6216 203° Southwest  Level Estimated
Mon 10:59:00 PM 26.1313 114.5674 203° Southwest  Level Estimated
Mon 11:00:00 PM 26.0171 114.5132 203° Southwest  Level Estimated
Mon 11:01:00 PM 25.9029 114.4592 203° Southwest  Level Estimated
Mon 11:02:00 PM 25.7887 114.4053 203° Southwest  Level Estimated
Mon 11:02:37 PM 24.7540 114.3810 203° Southwest 388 447 21,700  Level FlightAware ADS-B
Mon 11:03:00 PM 25.6745 114.3514 203° Southwest  Level Estimated
Mon 11:03:17 PM 24.6860 114.3540 200° South 383 441 21,300  Level FlightAware ADS-B
Mon 11:04:02 PM 24.6100 114.3230 200° South 379 436 20,600 -918 Descending FlightAware ADS-B
Mon 11:04:42 PM 24.5440 114.2960 200° South 375 432 20,000 -900 Descending FlightAware ADS-B
Mon 11:05:22 PM 24.4800 114.2710 200° South 373 429 19,400 -847 Descending FlightAware ADS-B
Mon 11:06:07 PM 24.4090 114.2420 200° South 367 422 18,800 -847 Descending FlightAware ADS-B
Mon 11:06:47 PM 24.3460 114.2170 200° South 365 420 18,200 -847 Descending FlightAware ADS-B
Mon 11:07:32 PM 24.2720 114.1870 200° South 359 413 17,600 -847 Descending FlightAware ADS-B
Mon 11:08:12 PM 24.2130 114.1630 200° South 356 410 17,000 -825 Descending FlightAware ADS-B
Mon 11:08:52 PM 24.1490 114.1380 200° South 352 405 16,500 -450 Descending FlightAware ADS-B
Mon 11:09:32 PM 24.0940 114.1160 200° South 352 405 16,400 -75 Descending FlightAware ADS-B
Mon 11:10:12 PM 24.0420 114.0950 200° South 352 405 16,400  Level FlightAware ADS-B
Mon 11:11:02 PM 23.9770 114.0690 200° South 352 405 16,400  Level FlightAware ADS-B
Mon 11:11:42 PM 23.9250 114.0480 200° South 352 405 16,400  Level FlightAware ADS-B
Mon 11:12:22 PM 23.8730 114.0280 199° South 352 405 16,400 -1,745 Level FlightAware ADS-B
Mon 11:13:32 PM 23.8560 113.9240 260° West 256 295 13,200 -2,160 Descending FlightAware ADS-B
Mon 11:14:02 PM 23.8360 113.8920 236° Southwest 254 292 12,800 -667 Descending FlightAware ADS-B
Mon 11:14:17 PM 23.8320 113.8750 256° West 256 295 12,700 -655 Descending FlightAware ADS-B
Mon 11:14:57 PM 23.8330 113.8230 271° West 257 296 12,200 -825 Descending FlightAware ADS-B
Mon 11:15:37 PM 23.8330 113.7710 270° West 254 292 11,600 -1,059 Descending FlightAware ADS-B
Mon 11:16:22 PM 23.8340 113.7150 271° West 250 288 10,700 -1,275 Descending FlightAware ADS-B
Mon 11:16:57 PM 23.8350 113.6710 271° West 249 287 9,900 -1,569 Descending FlightAware ADS-B
Mon 11:17:27 PM 23.8350 113.6330 270° West 248 285 9,000 -1,754 Descending FlightAware ADS-B
Mon 11:18:02 PM 23.8360 113.5870 271° West 247 284 8,000 -1,600 Descending FlightAware ADS-B
Mon 11:18:27 PM 23.8360 113.5580 270° West 247 284 7,400 -1,418 Descending FlightAware ADS-B
Mon 11:18:57 PM 23.8370 113.5210 272° West 242 278 6,700 -1,467 Descending FlightAware ADS-B
Mon 11:19:12 PM 23.8370 113.5020 270° West 241 277 6,300 -720 Descending FlightAware ADS-B
Mon 11:19:47 PM 23.8370 113.4620 270° West 241 277 6,100 -672 Descending FlightAware ADS-B
Mon 11:21:17 PM 23.8000 113.3980 238° Southwest 186 214 4,900 -626 Descending FlightAware ADS-B
Mon 11:21:42 PM 23.7780 113.3910 196° South 187 215 4,900 -218 Level FlightAware ADS-B
Mon 11:22:12 PM 23.7530 113.3850 192° South 182 209 4,700 -343 Descending FlightAware ADS-B
Mon 11:22:52 PM 23.7220 113.3770 193° South 186 214 4,500 -486 Descending FlightAware ADS-B
Mon 11:25:00 PM 23.4633 113.3156 192° South  Level Estimated
Mon 11:25:42 PM 23.5880 113.3410 192° South 171 197 3,000  Level FlightAware ADS-B
Mon 11:26:12 PM 23.5640 113.3340 195° South 170 196 3,000 -327 Level FlightAware ADS-B
Mon 11:26:37 PM 23.5450 113.3290 194° South 173 199 2,700 -800 Descending FlightAware ADS-B
Mon 11:26:57 PM 23.5290 113.3240 196° South 171 197 2,400 -900 Descending FlightAware ADS-B
Mon 11:29:00 PM 23.3924 113.2988 190° South  Level Estimated
Mon 11:30:00 PM 23.3924 113.2988 223° Southwest  Level Estimated
Mon 11:31:00 PM 23.3924 113.2988 223° Southwest  Level Estimated
Mon 11:32:00 PM 23.3924 113.2988 223° Southwest  Level Estimated
Mon 11:33:00 PM 23.3924 113.2988 223° Southwest  Level Estimated
Mon 11:34:00 PM 23.3924 113.2988 223° Southwest  Level Estimated
Mon 11:35:00 PM 23.3924 113.2988 223° Southwest  Level Estimated
Mon 11:36:00 PM 23.3924 113.2988 223° Southwest  Level Estimated
Mon 11:37:00 PM 23.3924 113.2988 223° Southwest  Level Estimated

Login

Don't have an account? Register now (free) for customized features, flight alerts, and more!